createdAt,value
2023-03-08T00:02:05.201Z,93288.53
2023-03-08T00:04:31.836Z,93283.78
2023-03-08T00:06:58.513Z,93298.13
2023-03-08T00:09:25.121Z,93297.19
2023-03-08T00:11:51.783Z,93287.78
2023-03-08T00:14:18.742Z,93296.69
2023-03-08T00:16:45.388Z,93299.50
2023-03-08T00:19:12.000Z,93307.88
2023-03-08T00:21:38.575Z,93289.53
2023-03-08T00:24:05.543Z,93296.59
2023-03-08T00:26:32.217Z,93301.63
2023-03-08T00:28:58.911Z,93294.25
2023-03-08T00:31:25.734Z,93299.47
2023-03-08T00:33:54.145Z,93296.66
2023-03-08T00:36:21.104Z,93299.91
2023-03-08T00:38:48.413Z,93301.38
2023-03-08T00:41:15.398Z,93298.97
2023-03-08T00:43:42.478Z,93295.97
2023-03-08T00:46:09.727Z,93290.19
2023-03-08T00:48:36.458Z,93283.69
2023-03-08T00:51:03.216Z,93286.31
2023-03-08T00:53:30.079Z,93291.81
2023-03-08T00:55:58.883Z,93287.75
2023-03-08T00:58:28.505Z,93292.72
2023-03-08T01:00:55.414Z,93290.53
2023-03-08T01:03:22.376Z,93293.47
2023-03-08T01:05:52.282Z,93284.88
2023-03-08T01:08:20.283Z,93299.47
2023-03-08T01:10:56.931Z,93287.75
2023-03-08T01:13:25.964Z,93302.16
2023-03-08T01:15:52.659Z,93293.47
2023-03-08T01:18:19.493Z,93306.03
2023-03-08T01:20:56.072Z,93301.06
2023-03-08T01:23:22.818Z,93308.16
2023-03-08T01:25:49.480Z,93297.56
2023-03-08T01:28:16.085Z,93302.78
2023-03-08T01:30:42.669Z,93307.69
2023-03-08T01:33:09.260Z,93299.03
2023-03-08T01:35:38.003Z,93301.59
2023-03-08T01:38:04.590Z,93303.19
2023-03-08T01:40:31.226Z,93300.00
2023-03-08T01:42:57.936Z,93301.28
2023-03-08T01:46:15.642Z,93302.44
2023-03-08T01:48:50.918Z,93294.19
2023-03-08T01:51:24.443Z,93298.09
2023-03-08T01:53:52.425Z,93294.44
2023-03-08T01:56:20.652Z,93300.84
2023-03-08T01:58:50.643Z,93305.50
2023-03-08T02:01:19.375Z,93297.50
2023-03-08T02:03:47.131Z,93299.66
2023-03-08T02:06:16.095Z,93299.34
2023-03-08T02:08:43.264Z,93304.94
2023-03-08T02:11:11.315Z,93305.75
2023-03-08T02:13:38.856Z,93296.66
2023-03-08T02:16:09.360Z,93303.94
2023-03-08T02:18:36.099Z,93299.09
2023-03-08T02:21:02.729Z,93305.75
2023-03-08T02:23:29.401Z,93299.94
2023-03-08T02:26:00.792Z,93303.81
2023-03-08T02:28:28.807Z,93297.13
2023-03-08T02:30:56.187Z,93306.94
2023-03-08T02:33:23.625Z,93302.81
2023-03-08T02:35:50.962Z,93305.97
2023-03-08T02:38:19.760Z,93302.34
2023-03-08T02:40:46.779Z,93303.69
2023-03-08T02:43:13.415Z,93304.66
2023-03-08T02:45:40.190Z,93319.97
2023-03-08T02:48:07.277Z,93324.69
2023-03-08T02:50:33.944Z,93311.88
2023-03-08T02:53:00.512Z,93317.63
2023-03-08T02:55:27.361Z,93311.53
2023-03-08T02:57:54.193Z,93331.34
2023-03-08T03:00:21.110Z,93330.28
2023-03-08T03:02:47.805Z,93329.16
2023-03-08T03:05:14.471Z,93331.91
2023-03-08T03:07:42.981Z,93325.75
2023-03-08T03:10:12.920Z,93334.97
2023-03-08T03:12:40.603Z,93327.41
2023-03-08T03:15:09.005Z,93329.38
2023-03-08T03:17:37.185Z,93337.25
2023-03-08T03:20:11.861Z,93330.69
2023-03-08T03:22:38.497Z,93335.13
2023-03-08T03:25:06.009Z,93340.47
2023-03-08T03:27:32.719Z,93336.03
2023-03-08T03:29:59.359Z,93339.91
2023-03-08T03:32:26.003Z,93342.13
2023-03-08T03:34:52.748Z,93338.13
2023-03-08T03:37:19.384Z,93346.09
2023-03-08T03:39:45.990Z,93334.78
2023-03-08T03:42:12.692Z,93340.34
2023-03-08T03:44:39.403Z,93342.06
2023-03-08T03:47:06.597Z,93340.94
2023-03-08T03:49:33.633Z,93333.91
2023-03-08T03:52:00.253Z,93350.19
2023-03-08T03:54:26.890Z,93350.47
2023-03-08T03:56:55.525Z,93352.41
2023-03-08T03:59:22.237Z,93347.66
2023-03-08T04:01:48.824Z,93359.09
2023-03-08T04:04:15.428Z,93353.22
2023-03-08T04:06:42.173Z,93353.47
2023-03-08T04:09:14.253Z,93361.25
2023-03-08T04:11:41.544Z,93357.31
2023-03-08T04:14:08.572Z,93349.56
2023-03-08T04:16:37.539Z,93356.94
2023-03-08T04:19:07.481Z,93354.03
2023-03-08T04:21:34.577Z,93358.81
2023-03-08T04:24:01.198Z,93351.59
2023-03-08T04:26:28.220Z,93354.50
2023-03-08T04:28:54.948Z,93365.91
2023-03-08T04:31:24.717Z,93374.28
2023-03-08T04:33:52.220Z,93365.16
2023-03-08T04:36:19.534Z,93362.59
2023-03-08T04:38:47.228Z,93370.28
2023-03-08T04:41:14.200Z,93366.56
2023-03-08T04:43:52.409Z,93362.09
2023-03-08T04:46:22.230Z,93357.19
2023-03-08T04:48:49.093Z,93367.78
2023-03-08T04:51:16.816Z,93361.75
2023-03-08T04:53:45.435Z,93365.19
2023-03-08T04:56:14.527Z,93370.38
2023-03-08T04:58:41.526Z,93377.72
2023-03-08T05:01:13.935Z,93371.38
2023-03-08T05:03:40.947Z,93388.25
2023-03-08T05:06:08.640Z,93386.75
2023-03-08T05:08:35.752Z,93399.84
2023-03-08T05:11:02.932Z,93395.72
2023-03-08T05:13:32.895Z,93399.19
2023-03-08T05:15:59.632Z,93405.59
2023-03-08T05:18:26.264Z,93410.72
2023-03-08T05:20:58.319Z,93404.22
2023-03-08T05:23:28.499Z,93412.06
2023-03-08T05:25:58.144Z,93415.34
2023-03-08T05:28:27.612Z,93423.72
2023-03-08T05:31:04.633Z,93415.22
2023-03-08T05:33:31.842Z,93424.75
2023-03-08T05:35:58.560Z,93423.41
2023-03-08T05:38:25.862Z,93425.16
2023-03-08T05:40:52.912Z,93430.47
2023-03-08T05:43:20.229Z,93435.75
2023-03-08T05:46:07.454Z,93438.50
2023-03-08T05:48:36.156Z,93442.03
2023-03-08T05:51:07.942Z,93439.72
2023-03-08T05:53:35.489Z,93439.91
2023-03-08T05:56:19.484Z,93442.59
2023-03-08T05:58:48.178Z,93436.50
2023-03-08T06:01:25.187Z,93444.66
2023-03-08T06:03:57.397Z,93438.31
2023-03-08T06:06:28.098Z,93449.16
2023-03-08T06:08:56.370Z,93456.69
2023-03-08T06:11:23.432Z,93449.16
2023-03-08T06:13:52.958Z,93455.81
2023-03-08T06:16:19.642Z,93450.63
2023-03-08T06:18:46.253Z,93469.59
2023-03-08T06:21:15.523Z,93463.72
2023-03-08T06:23:42.536Z,93473.28
2023-03-08T06:26:10.539Z,93464.97
2023-03-08T06:28:40.222Z,93466.53
2023-03-08T06:31:07.704Z,93468.69
2023-03-08T06:33:34.847Z,93474.50
2023-03-08T06:36:07.512Z,93474.94
2023-03-08T06:38:36.260Z,93471.59
2023-03-08T06:41:03.650Z,93479.78
2023-03-08T06:43:30.304Z,93484.31
2023-03-08T06:45:56.979Z,93489.88
2023-03-08T06:48:24.039Z,93491.88
2023-03-08T06:50:50.850Z,93503.91
2023-03-08T06:53:17.512Z,93509.38
2023-03-08T06:55:44.103Z,93509.97
2023-03-08T06:58:10.745Z,93517.09
2023-03-08T07:00:37.890Z,93515.16
2023-03-08T07:03:04.756Z,93515.84
2023-03-08T07:05:31.699Z,93512.53
2023-03-08T07:07:58.653Z,93515.81
2023-03-08T07:10:25.220Z,93526.38
2023-03-08T07:12:51.884Z,93527.53
2023-03-08T07:15:21.435Z,93520.19
2023-03-08T07:17:50.437Z,93529.31
2023-03-08T07:20:19.368Z,93532.19
2023-03-08T07:22:46.842Z,93525.25
2023-03-08T07:25:16.376Z,93529.72
2023-03-08T07:27:43.769Z,93533.50
2023-03-08T07:30:12.482Z,93527.38
2023-03-08T07:32:40.956Z,93526.84
2023-03-08T07:35:09.511Z,93523.91
2023-03-08T07:37:36.177Z,93524.13
2023-03-08T07:40:04.823Z,93520.97
2023-03-08T07:42:31.964Z,93522.41
2023-03-08T07:44:58.679Z,93524.25
2023-03-08T07:47:25.320Z,93518.97
2023-03-08T07:49:52.012Z,93511.38
2023-03-08T07:52:18.616Z,93530.91
2023-03-08T07:54:45.312Z,93529.19
2023-03-08T07:57:15.528Z,93526.94
2023-03-08T07:59:42.504Z,93535.75
2023-03-08T08:02:13.642Z,93525.75
2023-03-08T08:04:41.153Z,93520.38
2023-03-08T08:07:12.800Z,93527.19
2023-03-08T08:09:39.761Z,93523.03
2023-03-08T08:12:06.667Z,93529.97
2023-03-08T08:14:33.581Z,93532.94
2023-03-08T08:17:00.870Z,93534.06
2023-03-08T08:19:27.588Z,93537.06
2023-03-08T08:21:54.188Z,93542.47
2023-03-08T08:24:20.805Z,93539.50
2023-03-08T08:26:47.505Z,93546.50
2023-03-08T08:29:14.564Z,93544.97
2023-03-08T08:31:41.345Z,93549.41
2023-03-08T08:34:08.488Z,93540.59
2023-03-08T08:36:35.296Z,93539.78
2023-03-08T08:39:02.242Z,93542.53
2023-03-08T08:41:29.816Z,93542.97
2023-03-08T08:43:59.041Z,93538.53
2023-03-08T08:46:28.061Z,93534.34
2023-03-08T08:48:56.393Z,93531.13
2023-03-08T08:51:23.575Z,93537.06
2023-03-08T08:53:51.318Z,93529.88
2023-03-08T08:56:26.668Z,93524.59
2023-03-08T08:58:55.965Z,93536.34
2023-03-08T09:01:25.688Z,93530.03
2023-03-08T09:03:52.610Z,93538.03
2023-03-08T09:06:21.081Z,93542.81
2023-03-08T09:08:56.750Z,93542.03
2023-03-08T09:11:24.839Z,93548.97
2023-03-08T09:13:52.213Z,93532.78
2023-03-08T09:16:45.391Z,93529.34
2023-03-08T09:19:12.496Z,93532.84
2023-03-08T09:21:39.314Z,93530.56
2023-03-08T09:24:07.008Z,93525.06
2023-03-08T09:26:38.231Z,93526.47
2023-03-08T09:29:05.612Z,93526.88
2023-03-08T09:31:35.009Z,93518.50
2023-03-08T09:34:04.750Z,93520.25
2023-03-08T09:36:31.626Z,93509.72
2023-03-08T09:38:58.217Z,93518.75
2023-03-08T09:41:33.744Z,93512.13
2023-03-08T09:44:28.338Z,93519.97
2023-03-08T09:47:16.279Z,93524.00
2023-03-08T09:49:46.993Z,93516.31
2023-03-08T09:52:31.009Z,93513.06
2023-03-08T09:55:03.073Z,93510.63
2023-03-08T09:57:37.063Z,93506.34
2023-03-08T10:00:09.196Z,93503.34
2023-03-08T10:03:04.055Z,93498.97
2023-03-08T10:05:41.351Z,93500.25
2023-03-08T10:08:17.265Z,93500.06
2023-03-08T10:11:04.339Z,93496.13
2023-03-08T10:13:32.543Z,93496.59
2023-03-08T10:16:12.777Z,93492.09
2023-03-08T10:18:53.270Z,93485.84
2023-03-08T10:21:25.061Z,93483.78
2023-03-08T10:24:27.078Z,93484.28
2023-03-08T10:27:00.498Z,93479.78
2023-03-08T10:29:27.250Z,93475.44
2023-03-08T10:31:53.866Z,93483.59
2023-03-08T10:34:25.629Z,93492.78
2023-03-08T10:37:00.795Z,93480.84
2023-03-08T10:39:28.216Z,93483.84
2023-03-08T10:41:59.403Z,93472.13
2023-03-08T10:44:40.788Z,93465.97
2023-03-08T10:47:29.608Z,93470.50
2023-03-08T10:50:05.176Z,93461.75
2023-03-08T10:52:31.927Z,93450.59
2023-03-08T10:55:06.982Z,93459.84
2023-03-08T10:57:33.845Z,93454.03
2023-03-08T11:00:21.347Z,93459.47
2023-03-08T11:02:48.453Z,93464.06
2023-03-08T11:05:26.571Z,93454.81
2023-03-08T11:07:55.473Z,93453.28
2023-03-08T11:10:25.263Z,93446.41
2023-03-08T11:13:02.003Z,93441.78
2023-03-08T11:15:31.194Z,93435.22
2023-03-08T11:18:12.120Z,93432.16
2023-03-08T11:20:55.751Z,93422.19
2023-03-08T11:23:56.650Z,93410.66
2023-03-08T11:26:44.836Z,93407.47
2023-03-08T11:29:31.663Z,93404.50
2023-03-08T11:32:04.670Z,93395.19
2023-03-08T11:34:31.227Z,93396.78
2023-03-08T11:37:36.126Z,93392.25
2023-03-08T11:40:42.500Z,93397.53
2023-03-08T11:43:40.083Z,93393.44
2023-03-08T11:46:10.842Z,93392.78
2023-03-08T11:48:55.660Z,93395.94
2023-03-08T11:52:07.183Z,93395.06
2023-03-08T11:55:02.204Z,93384.19
2023-03-08T11:57:35.666Z,93377.28
2023-03-08T12:00:32.410Z,93374.81
2023-03-08T12:03:06.304Z,93369.09
2023-03-08T12:05:39.225Z,93370.50
2023-03-08T12:08:32.608Z,93373.94
2023-03-08T12:11:06.731Z,93363.91
2023-03-08T12:13:36.719Z,93368.13
2023-03-08T12:16:13.656Z,93361.22
2023-03-08T12:19:06.640Z,93368.06
2023-03-08T12:21:49.361Z,93370.19
2023-03-08T12:24:33.331Z,93376.81
2023-03-08T12:27:05.237Z,93379.22
2023-03-08T12:29:46.042Z,93382.94
2023-03-08T12:32:14.215Z,93382.97
2023-03-08T12:34:44.608Z,93380.56
2023-03-08T12:37:25.896Z,93372.22
2023-03-08T12:40:27.910Z,93377.94
2023-03-08T12:43:19.884Z,93371.59
2023-03-08T12:46:08.412Z,93364.22
2023-03-08T12:48:39.867Z,93368.28
2023-03-08T12:51:09.889Z,93368.66
2023-03-08T12:54:03.300Z,93355.25
2023-03-08T12:56:36.864Z,93353.47
2023-03-08T12:59:14.972Z,93361.63
2023-03-08T13:01:59.424Z,93361.00
2023-03-08T13:04:40.904Z,93362.25
2023-03-08T13:07:52.688Z,93354.53
2023-03-08T13:10:23.608Z,93350.50
2023-03-08T13:13:10.482Z,93349.03
2023-03-08T13:15:40.026Z,93355.34
2023-03-08T13:18:08.491Z,93344.72
2023-03-08T13:20:42.079Z,93331.97
2023-03-08T13:23:43.123Z,93337.56
2023-03-08T13:26:09.737Z,93331.75
2023-03-08T13:28:47.560Z,93338.78
2023-03-08T13:31:29.407Z,93334.16
2023-03-08T13:33:59.190Z,93338.94
2023-03-08T13:36:29.720Z,93344.03
2023-03-08T13:38:56.230Z,93337.50
2023-03-08T13:41:52.358Z,93343.59
2023-03-08T13:44:25.083Z,93337.38
2023-03-08T13:46:55.233Z,93338.34
2023-03-08T13:49:29.367Z,93342.13
2023-03-08T13:51:58.954Z,93336.53
2023-03-08T13:54:37.721Z,93331.22
2023-03-08T13:57:15.775Z,93336.50
2023-03-08T13:59:49.247Z,93340.81
2023-03-08T14:02:23.193Z,93327.69
2023-03-08T14:04:50.274Z,93330.72
2023-03-08T14:07:34.830Z,93324.06
2023-03-08T14:10:02.254Z,93334.69
2023-03-08T14:12:32.936Z,93327.56
2023-03-08T14:15:03.642Z,93327.75
2023-03-08T14:17:34.551Z,93330.03
2023-03-08T14:20:06.932Z,93327.59
2023-03-08T14:22:40.420Z,93330.34
2023-03-08T14:25:40.538Z,93324.69
2023-03-08T14:28:33.807Z,93338.59
2023-03-08T14:31:01.357Z,93324.31
2023-03-08T14:33:41.696Z,93320.84
2023-03-08T14:36:10.095Z,93307.78
2023-03-08T14:38:37.060Z,93316.47
2023-03-08T14:41:10.351Z,93326.19
2023-03-08T14:43:37.729Z,93323.47
2023-03-08T14:46:06.793Z,93331.03
2023-03-08T14:48:38.164Z,93340.03
2023-03-08T14:51:27.976Z,93336.06
2023-03-08T14:54:02.256Z,93340.09
2023-03-08T14:56:30.859Z,93331.28
2023-03-08T14:59:00.930Z,93337.16
2023-03-08T15:01:38.690Z,93342.44
2023-03-08T15:04:20.856Z,93340.13
2023-03-08T15:06:50.362Z,93337.44
2023-03-08T15:09:19.823Z,93346.47
2023-03-08T15:11:54.898Z,93340.59
2023-03-08T15:14:21.647Z,93338.16
2023-03-08T15:16:51.761Z,93335.47
2023-03-08T15:19:21.765Z,93327.34
2023-03-08T15:21:49.093Z,93332.63
2023-03-08T15:24:21.093Z,93342.03
2023-03-08T15:26:47.732Z,93346.13
2023-03-08T15:29:28.079Z,93351.44
2023-03-08T15:31:58.744Z,93356.84
2023-03-08T15:34:29.226Z,93347.13
2023-03-08T15:36:56.965Z,93339.63
2023-03-08T15:39:24.605Z,93341.53
2023-03-08T15:41:52.113Z,93345.09
2023-03-08T15:44:22.074Z,93343.34
2023-03-08T15:46:50.369Z,93342.88
2023-03-08T15:49:23.355Z,93343.00
2023-03-08T15:51:56.683Z,93332.78
2023-03-08T15:54:23.798Z,93327.88
2023-03-08T15:56:54.987Z,93330.97
2023-03-08T15:59:24.681Z,93332.00
2023-03-08T16:01:52.154Z,93348.81
2023-03-08T16:04:18.819Z,93349.44
2023-03-08T16:06:45.380Z,93341.53
2023-03-08T16:09:12.034Z,93339.09
2023-03-08T16:11:38.692Z,93328.09
2023-03-08T16:14:05.419Z,93332.75
2023-03-08T16:16:44.285Z,93336.50
2023-03-08T16:19:11.672Z,93330.00
2023-03-08T16:21:38.306Z,93329.63
2023-03-08T16:24:05.291Z,93332.72
2023-03-08T16:26:31.951Z,93336.22
2023-03-08T16:28:58.648Z,93340.34
2023-03-08T16:31:25.302Z,93342.06
2023-03-08T16:33:51.938Z,93339.69
2023-03-08T16:36:19.392Z,93342.81
2023-03-08T16:38:45.957Z,93347.97
2023-03-08T16:41:14.092Z,93345.22
2023-03-08T16:43:48.373Z,93351.78
2023-03-08T16:46:21.304Z,93358.72
2023-03-08T16:48:51.811Z,93364.75
2023-03-08T16:51:24.640Z,93371.38
2023-03-08T16:53:51.607Z,93362.28
2023-03-08T16:56:26.624Z,93364.13
2023-03-08T16:58:55.029Z,93374.91
2023-03-08T17:01:22.586Z,93366.84
2023-03-08T17:03:49.602Z,93362.16
2023-03-08T17:06:20.033Z,93361.44
2023-03-08T17:08:47.241Z,93367.94
2023-03-08T17:11:18.115Z,93370.63
2023-03-08T17:13:50.891Z,93374.97
2023-03-08T17:16:19.971Z,93381.09
2023-03-08T17:18:48.086Z,93374.97
2023-03-08T17:21:14.929Z,93383.41
2023-03-08T17:23:41.871Z,93391.47
2023-03-08T17:26:10.467Z,93394.13
2023-03-08T17:28:38.362Z,93404.56
2023-03-08T17:31:10.566Z,93405.31
2023-03-08T17:33:37.654Z,93418.31
2023-03-08T17:36:06.128Z,93428.31
2023-03-08T17:38:34.198Z,93434.06
2023-03-08T17:41:05.445Z,93439.25
2023-03-08T17:43:32.066Z,93435.88
2023-03-08T17:46:00.432Z,93447.41
2023-03-08T17:48:27.177Z,93454.75
2023-03-08T17:50:54.852Z,93453.63
2023-03-08T17:53:27.778Z,93444.03
2023-03-08T17:56:07.162Z,93446.75
2023-03-08T17:58:35.168Z,93444.44
2023-03-08T18:01:20.151Z,93438.28
2023-03-08T18:03:48.782Z,93453.63
2023-03-08T18:06:35.652Z,93469.72
2023-03-08T18:09:10.644Z,93468.78
2023-03-08T18:11:38.799Z,93466.59
2023-03-08T18:14:08.841Z,93465.03
2023-03-08T18:16:35.667Z,93470.06
2023-03-08T18:19:06.178Z,93468.47
2023-03-08T18:21:35.092Z,93473.09
2023-03-08T18:24:05.449Z,93481.00
2023-03-08T18:26:33.357Z,93480.22
2023-03-08T18:29:03.630Z,93476.09
2023-03-08T18:31:34.350Z,93474.22
2023-03-08T18:34:02.953Z,93471.97
2023-03-08T18:36:29.707Z,93475.06
2023-03-08T18:38:56.358Z,93470.00
2023-03-08T18:41:27.356Z,93464.19
2023-03-08T18:44:01.442Z,93464.69
2023-03-08T18:46:41.256Z,93467.97
2023-03-08T18:49:17.061Z,93469.19
2023-03-08T18:51:43.869Z,93468.78
2023-03-08T18:54:14.266Z,93465.53
2023-03-08T18:56:52.144Z,93475.22
2023-03-08T18:59:25.244Z,93473.06
2023-03-08T19:01:54.336Z,93474.19
2023-03-08T19:04:21.089Z,93477.69
2023-03-08T19:06:47.703Z,93479.41
2023-03-08T19:09:16.546Z,93476.59
2023-03-08T19:11:43.738Z,93475.41
2023-03-08T19:14:12.460Z,93480.56
2023-03-08T19:16:39.297Z,93491.84
2023-03-08T19:19:09.273Z,93490.25
2023-03-08T19:21:38.787Z,93490.03
2023-03-08T19:24:05.788Z,93496.41
2023-03-08T19:26:37.758Z,93490.53
2023-03-08T19:29:12.350Z,93494.66
2023-03-08T19:31:44.920Z,93497.03
2023-03-08T19:34:13.735Z,93496.72
2023-03-08T19:36:41.808Z,93492.75
2023-03-08T19:39:12.942Z,93491.31
2023-03-08T19:41:39.554Z,93488.41
2023-03-08T19:44:07.660Z,93494.94
2023-03-08T19:46:36.140Z,93491.97
2023-03-08T19:49:03.834Z,93490.19
2023-03-08T19:51:30.562Z,93493.44
2023-03-08T19:53:57.733Z,93502.38
2023-03-08T19:56:28.330Z,93504.88
2023-03-08T19:58:59.401Z,93508.03
2023-03-08T20:01:27.496Z,93509.13
2023-03-08T20:03:54.790Z,93504.03
2023-03-08T20:06:45.706Z,93507.38
2023-03-08T20:09:18.293Z,93508.28
2023-03-08T20:11:44.985Z,93510.47
2023-03-08T20:14:11.616Z,93504.00
2023-03-08T20:16:38.587Z,93505.25
2023-03-08T20:19:05.892Z,93500.34
2023-03-08T20:21:32.603Z,93510.28
2023-03-08T20:23:59.787Z,93504.19
2023-03-08T20:26:29.763Z,93504.19
2023-03-08T20:28:56.838Z,93504.66
2023-03-08T20:31:24.553Z,93522.56
2023-03-08T20:33:51.346Z,93504.44
2023-03-08T20:36:18.041Z,93516.38
2023-03-08T20:38:45.037Z,93507.34
2023-03-08T20:41:17.236Z,93507.09
2023-03-08T20:43:46.906Z,93510.09
2023-03-08T20:46:16.094Z,93513.78
2023-03-08T20:48:44.576Z,93507.84
2023-03-08T20:51:14.218Z,93508.66
2023-03-08T20:53:42.159Z,93515.81
2023-03-08T20:56:12.952Z,93507.59
2023-03-08T20:58:39.679Z,93503.16
2023-03-08T21:01:28.277Z,93505.72
2023-03-08T21:03:55.237Z,93501.16
2023-03-08T21:06:27.561Z,93496.38
2023-03-08T21:08:54.447Z,93494.81
2023-03-08T21:11:21.788Z,93496.78
2023-03-08T21:13:49.725Z,93496.47
2023-03-08T21:16:18.653Z,93494.41
2023-03-08T21:18:49.433Z,93497.09
2023-03-08T21:21:20.198Z,93494.34
2023-03-08T21:23:46.788Z,93498.88
2023-03-08T21:26:14.254Z,93507.56
2023-03-08T21:28:40.917Z,93504.66
2023-03-08T21:31:09.509Z,93500.38
2023-03-08T21:33:36.190Z,93499.19
2023-03-08T21:36:02.991Z,93499.50
2023-03-08T21:38:29.614Z,93498.63
2023-03-08T21:40:56.281Z,93497.72
2023-03-08T21:43:22.892Z,93489.03
2023-03-08T21:45:49.585Z,93483.69
2023-03-08T21:48:16.235Z,93492.09
2023-03-08T21:50:42.874Z,93490.09
2023-03-08T21:53:09.551Z,93485.69
2023-03-08T21:55:39.914Z,93484.03
2023-03-08T21:58:08.304Z,93479.72
2023-03-08T22:00:35.562Z,93484.13
2023-03-08T22:03:02.285Z,93484.22
2023-03-08T22:05:30.253Z,93483.44
2023-03-08T22:07:57.396Z,93488.41
2023-03-08T22:10:24.094Z,93488.75
2023-03-08T22:12:50.755Z,93496.91
2023-03-08T22:15:18.200Z,93493.78
2023-03-08T22:17:44.997Z,93499.94
2023-03-08T22:20:12.432Z,93494.06
2023-03-08T22:22:40.076Z,93498.28
2023-03-08T22:25:08.128Z,93501.13
2023-03-08T22:27:34.851Z,93497.63
2023-03-08T22:30:02.479Z,93496.41
2023-03-08T22:32:29.209Z,93495.38
2023-03-08T22:34:55.930Z,93491.31
2023-03-08T22:37:22.893Z,93488.78
2023-03-08T22:39:49.606Z,93491.88
2023-03-08T22:42:16.753Z,93502.84
2023-03-08T22:44:43.556Z,93501.97
2023-03-08T22:47:10.378Z,93499.53
2023-03-08T22:49:37.182Z,93488.88
2023-03-08T22:52:04.761Z,93488.13
2023-03-08T22:54:31.397Z,93481.78
2023-03-08T22:56:58.210Z,93472.84
2023-03-08T22:59:25.773Z,93481.41
2023-03-08T23:01:53.580Z,93482.09
2023-03-08T23:04:20.812Z,93472.22
2023-03-08T23:06:48.040Z,93469.41
2023-03-08T23:09:17.094Z,93471.41
2023-03-08T23:11:44.807Z,93472.44
2023-03-08T23:14:12.293Z,93474.53
2023-03-08T23:16:44.056Z,93466.78
2023-03-08T23:19:13.504Z,93462.22
2023-03-08T23:21:40.195Z,93468.00
2023-03-08T23:24:07.090Z,93465.34
2023-03-08T23:26:34.681Z,93460.19
2023-03-08T23:29:03.584Z,93464.66
2023-03-08T23:31:33.181Z,93472.94
2023-03-08T23:34:02.954Z,93460.81
2023-03-08T23:36:31.241Z,93469.84
2023-03-08T23:38:58.682Z,93461.84
2023-03-08T23:41:25.861Z,93453.28
2023-03-08T23:43:57.254Z,93460.09
2023-03-08T23:46:24.657Z,93451.38
2023-03-08T23:48:51.786Z,93449.31
2023-03-08T23:51:20.678Z,93455.78
2023-03-08T23:53:51.994Z,93444.16
2023-03-08T23:56:26.986Z,93458.94
2023-03-08T23:58:58.994Z,93454.00
